Time;durP1;ratioP1;P1;durP2;ratioP2;P2;SDS_P1;SDS_P2;PMS_P1;PMS_P2;Temp;Humidity;BMP_temperature;BMP_pressure;BME280_temperature;BME280_humidity;BME280_pressure;Samples;Min_cycle;Max_cycle;Signal;HPM_P1;HPM_P2
2022/06/23 00:01:05;;;;;;;1.30;1.20;;;25.50;42.90;;;;;;5024590;28;20463;-84
2022/06/23 00:03:35;;;;;;;1.00;1.00;;;25.50;43.00;;;;;;5015201;28;20473;-83
2022/06/23 00:06:06;;;;;;;1.30;1.20;;;25.50;43.20;;;;;;5017335;28;20467;-85
2022/06/23 00:08:43;;;;;;;1.27;1.00;;;25.50;43.10;;;;;;5015441;28;20532;-84
2022/06/23 00:11:19;;;;;;;1.20;1.20;;;25.50;43.10;;;;;;5015247;28;20404;-84
2022/06/23 00:13:47;;;;;;;1.30;1.20;;;25.40;43.00;;;;;;5014675;28;20431;-82
2022/06/23 00:16:25;;;;;;;1.10;1.00;;;25.40;43.20;;;;;;5021464;28;20449;-84
2022/06/23 00:18:53;;;;;;;1.30;1.20;;;25.40;43.10;;;;;;5017992;28;20575;-84
2022/06/23 00:21:24;;;;;;;1.13;0.90;;;25.40;43.30;;;;;;5015576;28;20508;-84
2022/06/23 00:23:54;;;;;;;1.30;1.20;;;25.40;43.10;;;;;;5015171;28;20468;-84
2022/06/23 00:26:23;;;;;;;1.50;1.00;;;25.30;43.20;;;;;;5015679;28;20412;-83
2022/06/23 00:28:52;;;;;;;3.33;1.00;;;25.30;43.30;;;;;;5014691;28;20472;-84
2022/06/23 00:31:25;;;;;;;0.90;0.90;;;25.30;43.10;;;;;;5021414;28;20456;-84
2022/06/23 00:33:53;;;;;;;1.00;1.00;;;25.30;43.30;;;;;;5026374;28;20401;-84
2022/06/23 00:36:28;;;;;;;1.20;1.10;;;25.30;43.20;;;;;;5010879;28;20465;-84
2022/06/23 00:38:56;;;;;;;1.03;1.03;;;25.20;43.30;;;;;;5005291;28;20442;-82
2022/06/23 00:41:28;;;;;;;1.50;1.40;;;25.20;43.40;;;;;;5004905;28;20437;-82
2022/06/23 00:43:56;;;;;;;1.13;1.13;;;25.20;43.20;;;;;;5004585;28;20539;-82
2022/06/23 00:46:26;;;;;;;4.30;0.93;;;25.10;43.30;;;;;;5007276;28;20473;-84
2022/06/23 00:48:56;;;;;;;1.10;1.10;;;25.10;43.50;;;;;;5028010;28;20441;-82
2022/06/23 00:51:28;;;;;;;1.37;1.37;;;25.10;44.10;;;;;;5031009;28;20430;-84
2022/06/23 00:53:58;;;;;;;1.37;1.27;;;25.00;43.30;;;;;;5025979;28;20435;-83
2022/06/23 00:56:34;;;;;;;1.80;1.23;;;25.00;43.50;;;;;;5026239;28;20444;-84
2022/06/23 00:59:03;;;;;;;0.97;0.97;;;25.00;43.50;;;;;;5025958;28;20422;-85
2022/06/23 01:01:32;;;;;;;0.90;0.90;;;25.00;43.50;;;;;;5019534;28;20463;-83
2022/06/23 01:04:02;;;;;;;0.80;0.80;;;25.00;43.50;;;;;;5027585;28;20544;-84
2022/06/23 01:06:35;;;;;;;1.20;1.10;;;25.00;43.50;;;;;;5036721;28;20444;-85
2022/06/23 01:09:05;;;;;;;1.00;1.00;;;25.00;43.40;;;;;;5045108;28;20501;-85
2022/06/23 01:11:35;;;;;;;2.17;1.07;;;24.90;43.60;;;;;;5044899;28;20962;-86
2022/06/23 01:14:11;;;;;;;0.90;0.90;;;24.90;43.60;;;;;;5044654;28;20439;-85
2022/06/23 01:16:42;;;;;;;0.90;0.90;;;24.90;44.20;;;;;;5044400;28;20482;-84
2022/06/23 01:19:21;;;;;;;1.23;1.17;;;24.80;43.40;;;;;;5039471;28;20502;-85
2022/06/23 01:21:53;;;;;;;1.83;1.17;;;24.80;43.60;;;;;;5034402;28;20442;-86
2022/06/23 01:24:25;;;;;;;0.90;0.90;;;24.80;43.60;;;;;;5040940;28;20498;-83
2022/06/23 01:27:20;;;;;;;1.03;1.03;;;24.80;43.60;;;;;;5042311;28;20447;-84
2022/06/23 01:29:51;;;;;;;1.10;1.10;;;24.70;43.60;;;;;;5041312;28;20452;-84
2022/06/23 01:32:20;;;;;;;2.00;1.00;;;24.70;43.60;;;;;;5043192;28;20473;-84
2022/06/23 01:34:51;;;;;;;1.03;1.00;;;24.80;43.60;;;;;;5042631;28;20426;-85
2022/06/23 01:37:22;;;;;;;1.03;1.03;;;24.70;43.50;;;;;;5033922;28;20456;-85
2022/06/23 01:39:53;;;;;;;1.10;1.00;;;24.60;43.40;;;;;;5025841;28;20435;-84
2022/06/23 01:42:23;;;;;;;1.07;0.90;;;24.60;43.60;;;;;;5025002;28;20456;-85
2022/06/23 01:44:57;;;;;;;0.90;0.90;;;24.60;43.40;;;;;;5025803;28;20448;-84
2022/06/23 01:47:29;;;;;;;1.20;1.20;;;24.60;43.50;;;;;;5025479;28;20451;-85
2022/06/23 01:50:14;;;;;;;1.47;0.90;;;24.60;43.60;;;;;;5025807;28;20411;-85
2022/06/23 01:52:43;;;;;;;4.30;1.27;;;24.60;43.80;;;;;;5024373;28;20468;-85
2022/06/23 01:55:15;;;;;;;1.00;1.00;;;24.60;43.50;;;;;;5033095;28;20443;-85
2022/06/23 01:57:45;;;;;;;1.47;1.00;;;24.60;43.50;;;;;;5024743;28;20435;-85
2022/06/23 02:00:16;;;;;;;0.90;0.90;;;24.60;43.60;;;;;;5025803;28;20434;-84
2022/06/23 02:02:49;;;;;;;1.00;1.00;;;24.60;43.60;;;;;;5024544;28;20472;-84
2022/06/23 02:05:26;;;;;;;1.00;1.00;;;24.50;43.20;;;;;;5023889;28;20433;-85
2022/06/23 02:07:56;;;;;;;1.30;1.27;;;24.50;43.80;;;;;;5026394;28;20445;-85
2022/06/23 02:10:27;;;;;;;1.20;1.20;;;24.50;43.50;;;;;;5018714;28;20487;-84
2022/06/23 02:12:57;;;;;;;0.90;0.90;;;24.50;43.70;;;;;;5017582;28;20507;-85
2022/06/23 02:15:29;;;;;;;1.00;1.00;;;24.50;43.60;;;;;;5025501;28;20444;-86
2022/06/23 02:17:58;;;;;;;1.10;1.10;;;24.40;43.50;;;;;;5017805;28;20464;-85
2022/06/23 02:20:34;;;;;;;0.90;0.90;;;24.50;43.50;;;;;;5025872;28;20487;-84
2022/06/23 02:23:09;;;;;;;1.10;1.00;;;24.40;43.50;;;;;;5025432;28;20468;-85
2022/06/23 02:25:39;;;;;;;8.10;1.10;;;24.40;43.50;;;;;;5031118;28;20430;-85
2022/06/23 02:28:11;;;;;;;1.40;1.30;;;24.40;43.40;;;;;;5037514;28;20443;-85
2022/06/23 02:30:42;;;;;;;1.07;1.07;;;24.40;43.50;;;;;;5044725;28;20467;-85
2022/06/23 02:33:16;;;;;;;1.30;1.20;;;24.40;43.50;;;;;;5045811;28;20438;-84
2022/06/23 02:35:46;;;;;;;0.90;0.90;;;24.40;43.50;;;;;;5045326;28;20467;-85
2022/06/23 02:38:18;;;;;;;0.83;0.83;;;24.40;43.50;;;;;;5045298;28;20504;-85
2022/06/23 02:40:47;;;;;;;1.07;1.07;;;24.30;43.30;;;;;;5039744;28;20791;-85
2022/06/23 02:43:26;;;;;;;1.00;1.00;;;24.30;43.40;;;;;;5036758;28;20465;-86
2022/06/23 02:46:26;;;;;;;1.00;0.90;;;24.30;43.50;;;;;;5048688;28;20462;-85
2022/06/23 02:49:09;;;;;;;1.03;1.00;;;24.30;43.30;;;;;;4999893;28;20437;-85
2022/06/23 02:51:50;;;;;;;1.03;1.00;;;24.30;43.40;;;;;;5048668;28;20530;-84
2022/06/23 02:54:37;;;;;;;1.00;1.00;;;24.30;43.30;;;;;;5048108;28;20455;-84
2022/06/23 02:57:31;;;;;;;1.27;1.10;;;24.30;43.40;;;;;;5043366;28;20449;-85
2022/06/23 03:00:00;;;;;;;0.90;0.90;;;24.20;43.30;;;;;;5022528;28;20433;-83
2022/06/23 03:02:32;;;;;;;1.00;1.00;;;24.20;43.40;;;;;;5045746;28;20495;-83
2022/06/23 03:05:03;;;;;;;1.07;1.07;;;24.20;43.30;;;;;;5044650;28;20446;-83
2022/06/23 03:07:32;;;;;;;1.00;1.00;;;24.10;43.20;;;;;;5044864;28;20460;-83
2022/06/23 03:10:04;;;;;;;0.90;0.90;;;24.10;43.40;;;;;;5045684;28;20467;-84
2022/06/23 03:12:37;;;;;;;1.00;1.00;;;24.10;43.30;;;;;;5042936;28;20513;-83
2022/06/23 03:15:09;;;;;;;1.10;1.10;;;24.10;43.30;;;;;;5034165;28;20441;-85
2022/06/23 03:17:41;;;;;;;1.50;1.50;;;24.10;43.40;;;;;;5047506;28;20443;-83
2022/06/23 03:20:14;;;;;;;1.17;1.07;;;24.10;43.30;;;;;;5046952;28;20447;-84
2022/06/23 03:22:46;;;;;;;1.20;1.20;;;24.10;43.40;;;;;;5047112;28;20446;-84
2022/06/23 03:25:16;;;;;;;2.00;1.30;;;24.10;43.30;;;;;;5046154;28;20880;-85
2022/06/23 03:27:47;;;;;;;1.53;1.30;;;24.10;43.30;;;;;;5037797;28;20423;-84
2022/06/23 03:30:18;;;;;;;1.40;1.30;;;24.10;43.30;;;;;;5031505;28;20430;-85
2022/06/23 03:32:51;;;;;;;1.40;1.30;;;24.00;43.20;;;;;;5025486;28;20507;-84
2022/06/23 03:35:21;;;;;;;1.20;1.20;;;24.00;43.30;;;;;;5026015;28;20438;-85
2022/06/23 03:37:51;;;;;;;1.10;1.10;;;24.00;43.30;;;;;;5027742;28;20471;-86
2022/06/23 03:43:12;;;;;;;1.00;1.00;;;24.00;43.20;;;;;;5031454;28;21023;-87
2022/06/23 03:45:42;;;;;;;0.90;0.90;;;24.00;43.10;;;;;;5038088;28;20533;-86
2022/06/23 03:48:14;;;;;;;0.90;0.90;;;24.00;43.30;;;;;;5046766;28;20452;-85
2022/06/23 03:50:46;;;;;;;1.10;1.10;;;24.00;43.20;;;;;;5046499;28;20433;-86
2022/06/23 03:53:18;;;;;;;1.00;1.00;;;24.00;43.10;;;;;;5046548;28;20486;-86
2022/06/23 03:55:47;;;;;;;1.00;1.00;;;24.00;43.10;;;;;;5046343;28;20497;-85
2022/06/23 03:58:18;;;;;;;1.10;1.10;;;24.00;43.20;;;;;;5041682;28;20575;-84
2022/06/23 04:00:53;;;;;;;1.53;1.20;;;24.00;43.10;;;;;;5035684;28;20468;-85
2022/06/23 04:03:23;;;;;;;1.57;1.03;;;24.00;43.20;;;;;;5046959;28;20487;-85
2022/06/23 04:06:17;;;;;;;1.10;1.10;;;24.00;43.00;;;;;;5046814;28;20471;-85
2022/06/23 04:08:55;;;;;;;1.20;1.20;;;24.00;42.90;;;;;;5047732;28;20515;-86
2022/06/23 04:14:09;;;;;;;1.40;1.30;;;23.90;43.20;;;;;;5048817;28;20435;-86
2022/06/23 04:16:44;;;;;;;1.10;1.10;;;24.00;43.20;;;;;;5039961;28;20539;-86
2022/06/23 04:19:18;;;;;;;2.87;1.00;;;24.00;43.20;;;;;;5040219;28;20446;-87
2022/06/23 04:21:49;;;;;;;1.07;1.00;;;24.00;43.20;;;;;;5047381;28;20458;-87
2022/06/23 04:24:19;;;;;;;1.13;1.13;;;24.00;43.30;;;;;;5047374;28;20495;-85
2022/06/23 04:26:48;;;;;;;1.00;1.00;;;24.00;43.30;;;;;;5047302;28;20452;-88
2022/06/23 04:29:20;;;;;;;1.10;1.10;;;24.00;43.30;;;;;;5047154;28;20422;-86
2022/06/23 04:31:49;;;;;;;1.33;1.23;;;24.00;43.30;;;;;;5047967;28;20497;-87
2022/06/23 04:34:21;;;;;;;1.13;1.10;;;24.00;43.30;;;;;;5038939;28;20440;-87
2022/06/23 04:36:48;;;;;;;1.10;1.10;;;24.00;43.30;;;;;;5046033;28;20447;-86
2022/06/23 04:39:24;;;;;;;1.73;1.10;;;24.00;43.30;;;;;;5047311;28;20463;-85
2022/06/23 04:41:54;;;;;;;1.13;1.13;;;24.00;43.30;;;;;;5046200;28;20438;-88
2022/06/23 04:44:24;;;;;;;1.27;1.17;;;24.00;43.20;;;;;;5047392;28;20449;-86
2022/06/23 04:46:53;;;;;;;1.40;1.30;;;24.10;43.40;;;;;;5048280;28;20463;-87
2022/06/23 04:49:24;;;;;;;1.20;1.20;;;24.10;43.30;;;;;;5044600;28;20433;-86
2022/06/23 04:51:54;;;;;;;1.67;1.10;;;24.10;43.30;;;;;;5039127;28;20458;-87
2022/06/23 04:54:24;;;;;;;1.10;1.10;;;24.10;43.40;;;;;;5049497;28;20480;-86
2022/06/23 04:56:56;;;;;;;1.20;1.00;;;24.10;43.40;;;;;;5048410;28;20455;-86
2022/06/23 04:59:29;;;;;;;1.10;1.00;;;24.10;43.50;;;;;;5047526;28;20909;-85
2022/06/23 05:01:59;;;;;;;1.27;1.27;;;24.10;43.50;;;;;;5047583;28;20542;-86
2022/06/23 05:04:30;;;;;;;1.17;1.17;;;24.10;43.40;;;;;;5046956;28;20467;-86
2022/06/23 05:06:59;;;;;;;1.00;1.00;;;24.10;43.50;;;;;;5043856;28;20460;-86
2022/06/23 05:09:29;;;;;;;1.03;1.03;;;24.10;43.40;;;;;;5039481;28;20448;-86
2022/06/23 05:11:59;;;;;;;1.00;1.00;;;24.10;43.30;;;;;;5047094;28;20483;-85
2022/06/23 05:14:30;;;;;;;0.90;0.90;;;24.10;43.40;;;;;;5046782;28;20466;-86
2022/06/23 05:17:04;;;;;;;1.10;1.10;;;24.10;43.40;;;;;;5047154;28;20422;-87
2022/06/23 05:19:35;;;;;;;0.90;0.90;;;24.20;43.30;;;;;;5047374;28;20444;-86
2022/06/23 05:22:10;;;;;;;1.20;1.20;;;24.20;43.20;;;;;;5047185;28;20462;-86
2022/06/23 05:24:40;;;;;;;1.00;1.00;;;24.20;43.40;;;;;;5041300;28;20478;-84
2022/06/23 05:27:14;;;;;;;1.00;0.93;;;24.30;43.40;;;;;;5026799;28;20452;-85
2022/06/23 05:29:44;;;;;;;1.17;1.17;;;24.30;43.20;;;;;;5026275;28;20452;-85
2022/06/23 05:32:27;;;;;;;1.00;1.00;;;24.30;43.30;;;;;;5027327;28;20471;-86
2022/06/23 05:34:59;;;;;;;1.20;1.20;;;24.30;43.30;;;;;;5027845;28;20448;-86
2022/06/23 05:37:30;;;;;;;1.00;1.00;;;24.30;43.40;;;;;;5027791;28;20454;-85
2022/06/23 05:40:14;;;;;;;1.20;1.20;;;24.30;43.10;;;;;;5037225;28;20459;-87
2022/06/23 05:42:46;;;;;;;1.03;1.03;;;24.30;43.20;;;;;;5047128;28;20491;-86
2022/06/23 05:45:17;;;;;;;1.20;1.20;;;24.30;43.10;;;;;;5046502;28;20471;-86
2022/06/23 05:47:45;;;;;;;1.13;1.10;;;24.40;43.30;;;;;;5046555;28;20425;-87
2022/06/23 05:50:16;;;;;;;1.17;1.17;;;24.40;43.20;;;;;;5047394;28;20486;-86
2022/06/23 05:52:46;;;;;;;1.07;1.07;;;24.40;43.20;;;;;;5047176;28;20809;-86
2022/06/23 05:55:15;;;;;;;1.10;1.10;;;24.40;43.20;;;;;;5033724;28;20444;-86
2022/06/23 05:57:46;;;;;;;1.30;1.20;;;24.40;43.10;;;;;;5043074;28;20454;-87
2022/06/23 06:00:28;;;;;;;1.10;1.10;;;24.40;42.90;;;;;;5044696;28;20438;-88
2022/06/23 06:02:57;;;;;;;1.23;1.23;;;24.40;43.20;;;;;;5046241;28;20491;-88
2022/06/23 06:05:28;;;;;;;1.53;1.20;;;24.50;43.40;;;;;;5044934;28;20574;-87
2022/06/23 06:07:56;;;;;;;1.20;1.20;;;24.50;43.30;;;;;;5043343;28;20544;-88
2022/06/23 06:10:26;;;;;;;1.20;1.20;;;24.50;43.20;;;;;;5041194;28;20429;-88
2022/06/23 06:12:54;;;;;;;1.13;1.13;;;24.50;43.20;;;;;;5036312;28;20529;-87
2022/06/23 06:15:24;;;;;;;1.13;1.10;;;24.50;43.20;;;;;;5043341;28;20462;-85
2022/06/23 06:17:54;;;;;;;0.90;0.90;;;24.60;43.20;;;;;;5045241;28;20443;-86
2022/06/23 06:20:24;;;;;;;0.80;0.80;;;24.60;43.10;;;;;;5046471;28;20422;-87
2022/06/23 06:22:57;;;;;;;1.00;1.00;;;24.60;43.00;;;;;;5048351;28;20459;-87
2022/06/23 06:25:26;;;;;;;1.20;1.20;;;24.60;43.10;;;;;;5048052;28;20513;-85
2022/06/23 06:27:55;;;;;;;1.10;1.00;;;24.70;43.10;;;;;;5043571;28;20475;-86
2022/06/23 06:30:26;;;;;;;1.10;1.10;;;24.70;43.00;;;;;;5035980;28;20469;-86
2022/06/23 06:32:54;;;;;;;1.00;1.00;;;24.80;43.00;;;;;;5047115;28;20550;-87
2022/06/23 06:35:28;;;;;;;1.20;1.20;;;24.70;42.80;;;;;;5046835;28;20418;-86
2022/06/23 06:38:00;;;;;;;1.03;1.03;;;24.80;42.80;;;;;;5047359;28;20429;-86
2022/06/23 06:40:28;;;;;;;1.17;1.17;;;24.80;43.10;;;;;;5045580;28;20474;-86
2022/06/23 06:42:58;;;;;;;1.00;1.00;;;24.90;42.90;;;;;;5046537;28;20474;-87
2022/06/23 06:45:28;;;;;;;1.23;1.13;;;24.90;43.00;;;;;;5045335;28;20470;-86
2022/06/23 06:47:57;;;;;;;1.63;1.20;;;25.00;42.80;;;;;;5039249;28;20435;-86
2022/06/23 06:50:30;;;;;;;1.10;1.10;;;25.00;42.80;;;;;;5048079;28;20475;-86
2022/06/23 06:52:59;;;;;;;1.30;1.30;;;25.00;42.70;;;;;;5048490;28;20463;-87
2022/06/23 06:55:30;;;;;;;1.20;1.20;;;25.00;42.70;;;;;;5050207;28;20444;-86
2022/06/23 06:58:01;;;;;;;1.17;1.10;;;25.10;42.70;;;;;;5051163;28;20410;-87
2022/06/23 07:00:32;;;;;;;1.20;1.20;;;25.10;42.70;;;;;;5050587;28;20510;-88
2022/06/23 07:03:01;;;;;;;1.40;1.30;;;25.20;42.60;;;;;;5044281;28;20448;-87
2022/06/23 07:05:31;;;;;;;1.27;1.17;;;25.20;42.60;;;;;;5041545;28;20477;-87
2022/06/23 07:08:02;;;;;;;1.13;1.13;;;25.30;42.50;;;;;;5048764;28;20414;-86
2022/06/23 07:10:31;;;;;;;1.10;1.10;;;25.40;42.50;;;;;;5048458;28;20454;-86
2022/06/23 07:13:01;;;;;;;1.00;1.00;;;25.50;42.50;;;;;;5048607;28;20450;-87
2022/06/23 07:15:30;;;;;;;0.97;0.97;;;25.60;42.50;;;;;;5045110;28;20438;-86
2022/06/23 07:18:02;;;;;;;1.03;1.03;;;25.60;42.40;;;;;;5018463;28;20416;-88
2022/06/23 07:20:35;;;;;;;1.37;1.10;;;25.70;42.30;;;;;;5025092;28;20486;-88
2022/06/23 07:23:05;;;;;;;1.30;1.20;;;25.80;42.40;;;;;;5020395;28;20439;-88
2022/06/23 07:25:35;;;;;;;1.10;1.10;;;25.90;42.40;;;;;;5017780;28;20448;-87
2022/06/23 07:28:05;;;;;;;1.47;1.47;;;26.00;42.50;;;;;;5019870;28;20919;-87
2022/06/23 07:30:34;;;;;;;1.50;1.40;;;26.10;42.40;;;;;;5018256;28;20416;-86
2022/06/23 07:33:04;;;;;;;1.10;1.10;;;26.20;42.50;;;;;;5008429;28;20440;-86
2022/06/23 07:35:34;;;;;;;1.40;1.30;;;26.30;42.40;;;;;;5024238;28;20460;-85
2022/06/23 07:38:07;;;;;;;1.10;1.00;;;26.50;42.40;;;;;;5039353;28;20513;-86
2022/06/23 07:40:40;;;;;;;1.03;1.03;;;26.60;42.50;;;;;;5009811;28;20476;-86
2022/06/23 07:43:10;;;;;;;1.00;1.00;;;26.70;42.40;;;;;;5008773;28;20473;-86
2022/06/23 07:45:42;;;;;;;1.03;1.03;;;26.80;42.30;;;;;;5007942;28;20455;-86
2022/06/23 07:48:10;;;;;;;1.13;1.13;;;27.00;42.30;;;;;;5006895;28;20424;-85
2022/06/23 07:50:38;;;;;;;1.10;1.10;;;27.00;42.20;;;;;;5015157;28;20979;-87
2022/06/23 07:53:11;;;;;;;1.10;1.10;;;27.20;42.20;;;;;;5034825;28;20435;-86
2022/06/23 07:55:41;;;;;;;1.80;1.00;;;27.30;42.20;;;;;;5043834;28;20440;-88
2022/06/23 07:58:15;;;;;;;1.47;1.37;;;27.40;42.10;;;;;;5046646;28;20461;-86
2022/06/23 08:00:44;;;;;;;1.17;1.17;;;27.60;42.10;;;;;;5046596;28;20418;-86
2022/06/23 08:03:13;;;;;;;1.03;1.03;;;27.70;42.20;;;;;;5018315;28;20489;-87
2022/06/23 08:05:43;;;;;;;1.20;1.20;;;27.80;42.00;;;;;;5021098;28;20411;-87
2022/06/23 08:08:17;;;;;;;1.10;1.10;;;28.00;42.00;;;;;;5015167;28;20494;-86
2022/06/23 08:10:45;;;;;;;1.20;1.20;;;28.10;42.00;;;;;;5017110;28;20421;-85
2022/06/23 08:13:14;;;;;;;1.10;1.10;;;28.30;41.90;;;;;;5015959;28;20454;-88
2022/06/23 08:18:31;;;;;;;1.00;1.00;;;28.60;41.80;;;;;;5019458;28;20490;-87
2022/06/23 08:21:03;;;;;;;1.20;1.20;;;28.70;41.80;;;;;;5008703;28;20439;-85
2022/06/23 08:23:35;;;;;;;2.13;1.20;;;28.80;41.70;;;;;;5007600;28;20442;-84
2022/06/23 08:26:05;;;;;;;1.33;1.33;;;29.00;41.70;;;;;;5032753;28;20486;-86
2022/06/23 08:28:33;;;;;;;1.17;1.17;;;29.20;41.60;;;;;;5024579;28;20423;-85
2022/06/23 08:31:02;;;;;;;1.40;1.40;;;29.30;41.50;;;;;;5024784;28;20442;-85
2022/06/23 08:33:31;;;;;;;1.33;1.33;;;29.40;41.40;;;;;;5025234;28;20690;-86
2022/06/23 08:35:59;;;;;;;1.50;1.40;;;29.60;41.40;;;;;;5025138;28;20495;-86
2022/06/23 08:38:29;;;;;;;1.40;1.33;;;29.80;41.40;;;;;;5025798;28;20476;-85
2022/06/23 08:41:08;;;;;;;1.60;1.50;;;29.90;41.20;;;;;;5028971;28;20422;-86
2022/06/23 08:43:38;;;;;;;1.40;1.40;;;30.10;41.20;;;;;;5024788;28;20551;-84
2022/06/23 08:46:10;;;;;;;1.30;1.30;;;30.30;41.20;;;;;;5021741;28;20443;-83
2022/06/23 08:48:43;;;;;;;3.67;1.33;;;30.50;41.10;;;;;;5022408;28;20470;-84
2022/06/23 08:51:18;;;;;;;1.43;1.33;;;30.60;41.00;;;;;;5025527;28;20464;-86
2022/06/23 08:53:54;;;;;;;1.33;1.23;;;30.80;41.00;;;;;;4995022;28;20441;-85
2022/06/23 08:56:25;;;;;;;1.30;1.30;;;30.90;40.90;;;;;;5015150;28;20476;-83
2022/06/23 08:58:54;;;;;;;1.50;1.50;;;31.10;40.80;;;;;;5032902;28;20502;-84
2022/06/23 09:01:24;;;;;;;1.30;1.20;;;31.30;40.80;;;;;;5008980;28;20449;-85
2022/06/23 09:03:54;;;;;;;1.40;1.40;;;31.50;40.70;;;;;;5005792;28;20445;-85
2022/06/23 09:06:30;;;;;;;1.57;1.47;;;31.70;40.60;;;;;;5003799;28;20513;-87
2022/06/23 09:09:01;;;;;;;1.50;1.40;;;31.80;40.40;;;;;;5003479;28;20512;-86
2022/06/23 09:11:34;;;;;;;1.33;1.33;;;32.00;40.30;;;;;;5019503;28;20444;-85
2022/06/23 09:14:14;;;;;;;1.60;1.50;;;32.20;40.20;;;;;;5029600;28;20498;-83
2022/06/23 09:16:56;;;;;;;1.87;1.77;;;32.40;40.70;;;;;;5018936;28;20431;-85
2022/06/23 09:19:34;;;;;;;1.93;1.60;;;32.60;39.90;;;;;;5013278;28;20503;-85
2022/06/23 09:22:16;;;;;;;2.50;1.37;;;32.80;39.80;;;;;;5014817;28;20467;-82
2022/06/23 09:25:01;;;;;;;1.60;1.50;;;32.90;39.70;;;;;;5014262;28;20472;-85
2022/06/23 09:27:44;;;;;;;2.40;2.20;;;33.10;39.50;;;;;;5013825;28;20472;-83
2022/06/23 09:30:16;;;;;;;1.67;1.60;;;33.30;39.50;;;;;;5014023;28;20513;-84
2022/06/23 09:32:58;;;;;;;3.90;1.70;;;33.50;39.40;;;;;;5016088;28;20498;-85
2022/06/23 09:35:59;;;;;;;1.73;1.63;;;33.70;39.30;;;;;;5007238;28;20457;-84
2022/06/23 09:38:48;;;;;;;1.97;1.77;;;33.90;39.10;;;;;;5014285;28;20515;-83
2022/06/23 09:41:26;;;;;;;2.00;1.90;;;34.00;38.90;;;;;;4993364;28;20484;-84
2022/06/23 09:44:19;;;;;;;2.00;1.90;;;34.30;38.90;;;;;;4994436;28;20439;-84
2022/06/23 09:47:17;;;;;;;2.63;2.10;;;34.50;38.70;;;;;;4993970;28;20477;-83
2022/06/23 09:49:52;;;;;;;3.17;1.70;;;34.60;38.60;;;;;;4993422;28;20445;-85
2022/06/23 09:52:47;;;;;;;4.40;2.10;;;34.80;38.50;;;;;;4994579;28;20547;-85
2022/06/23 09:55:39;;;;;;;2.13;2.00;;;35.00;38.40;;;;;;4999974;28;20479;-84
2022/06/23 09:58:34;;;;;;;1.90;1.80;;;35.30;38.20;;;;;;4998838;28;20436;-85
2022/06/23 10:01:12;;;;;;;2.20;2.10;;;35.40;38.00;;;;;;5009417;28;20456;-85
2022/06/23 10:03:50;;;;;;;3.17;2.03;;;35.70;37.90;;;;;;5026283;28;20509;-84
2022/06/23 10:06:37;;;;;;;2.40;2.00;;;35.90;37.80;;;;;;5022237;28;20540;-84
2022/06/23 10:09:09;;;;;;;2.00;1.90;;;36.00;37.60;;;;;;5017405;28;20439;-84
2022/06/23 10:11:56;;;;;;;2.00;1.90;;;36.20;37.50;;;;;;5021935;28;20499;-85
2022/06/23 10:14:29;;;;;;;1.80;1.70;;;36.40;37.30;;;;;;5025698;28;20451;-82
2022/06/23 10:17:11;;;;;;;4.23;2.07;;;36.50;37.20;;;;;;5020925;28;20527;-83
2022/06/23 10:20:06;;;;;;;2.17;1.83;;;36.80;37.10;;;;;;5019932;28;20567;-82
2022/06/23 10:22:47;;;;;;;2.23;2.13;;;37.00;36.90;;;;;;5018694;28;20464;-83
2022/06/23 10:25:37;;;;;;;1.80;1.63;;;37.10;36.70;;;;;;5021123;28;20463;-82
2022/06/23 10:28:13;;;;;;;2.93;2.10;;;37.30;36.50;;;;;;5027493;28;20465;-83
2022/06/23 10:30:44;;;;;;;3.63;1.80;;;37.50;36.30;;;;;;5023474;28;20476;-84
2022/06/23 10:33:46;;;;;;;2.07;1.97;;;37.70;36.20;;;;;;5023185;28;20468;-83
2022/06/23 10:36:34;;;;;;;2.10;1.93;;;37.90;36.00;;;;;;5033796;28;20470;-82
2022/06/23 10:39:06;;;;;;;2.23;1.90;;;38.10;35.80;;;;;;5041023;28;20495;-83
2022/06/23 10:41:43;;;;;;;2.40;2.10;;;38.40;35.60;;;;;;5026242;28;20528;-83
2022/06/23 10:44:18;;;;;;;1.70;1.60;;;38.50;35.40;;;;;;5023735;28;20820;-83
2022/06/23 10:46:49;;;;;;;2.50;2.30;;;38.70;35.20;;;;;;5030807;28;20443;-83
2022/06/23 10:49:30;;;;;;;5.53;2.10;;;38.90;35.00;;;;;;5017011;28;20480;-84
2022/06/23 10:52:46;;;;;;;2.27;2.07;;;39.20;34.90;;;;;;5008593;28;20519;-84
2022/06/23 10:55:31;;;;;;;1.93;1.83;;;39.40;34.70;;;;;;4984781;28;20511;-84
2022/06/23 10:58:08;;;;;;;2.30;1.80;;;39.50;34.30;;;;;;5039158;28;20439;-84
2022/06/23 11:00:38;;;;;;;2.30;1.67;;;39.80;34.20;;;;;;5045161;28;20469;-84
2022/06/23 11:03:27;;;;;;;2.47;2.27;;;39.90;34.00;;;;;;5045578;28;20550;-84
2022/06/23 11:06:25;;;;;;;3.03;1.50;;;40.10;33.70;;;;;;5012536;28;20428;-83
2022/06/23 11:09:26;;;;;;;2.73;2.03;;;40.40;33.50;;;;;;5019870;28;20844;-85
2022/06/23 11:12:01;;;;;;;2.63;1.60;;;40.60;33.30;;;;;;5009142;28;20467;-85
2022/06/23 11:14:36;;;;;;;5.47;1.87;;;40.70;33.10;;;;;;5019570;28;20535;-83
2022/06/23 11:17:10;;;;;;;3.30;1.80;;;40.90;32.90;;;;;;5045613;28;20502;-83
2022/06/23 11:19:50;;;;;;;1.70;1.53;;;41.10;32.70;;;;;;5045636;28;20435;-83
2022/06/23 11:22:30;;;;;;;1.50;1.50;;;41.40;32.50;;;;;;5043799;28;20502;-83
2022/06/23 11:25:04;;;;;;;1.70;1.60;;;41.80;32.20;;;;;;5020162;28;20528;-83
2022/06/23 11:27:38;;;;;;;2.20;2.03;;;42.10;31.60;;;;;;5025776;28;20439;-83
2022/06/23 11:30:11;;;;;;;1.60;1.50;;;42.50;31.10;;;;;;5032885;28;20482;-83
2022/06/23 11:32:41;;;;;;;1.83;1.73;;;42.90;31.40;;;;;;5042997;28;20458;-83
2022/06/23 11:35:35;;;;;;;1.63;1.50;;;43.20;30.30;;;;;;5026674;28;20454;-83
2022/06/23 11:38:18;;;;;;;1.73;1.43;;;43.60;30.00;;;;;;5036338;28;20497;-85
2022/06/23 11:40:57;;;;;;;1.50;1.50;;;43.90;29.60;;;;;;5034745;28;20478;-85
2022/06/23 11:43:26;;;;;;;1.80;1.70;;;44.20;29.50;;;;;;5033281;28;20466;-85
2022/06/23 11:46:01;;;;;;;1.50;1.40;;;44.40;29.20;;;;;;5023142;28;20463;-85
2022/06/23 11:48:54;;;;;;;1.70;1.47;;;44.50;29.00;;;;;;5032454;28;20477;-85
2022/06/23 11:51:28;;;;;;;1.50;1.40;;;44.60;29.00;;;;;;5019010;28;20464;-83
2022/06/23 11:54:08;;;;;;;1.57;1.47;;;44.70;28.90;;;;;;5021975;28;20503;-84
2022/06/23 11:56:48;;;;;;;1.40;1.40;;;44.80;28.80;;;;;;5002979;28;20472;-84
2022/06/23 11:59:29;;;;;;;1.57;1.50;;;44.80;28.80;;;;;;5001647;28;20432;-84
2022/06/23 12:02:17;;;;;;;3.23;1.70;;;44.80;28.80;;;;;;5010410;28;20468;-84
2022/06/23 12:05:06;;;;;;;1.40;1.40;;;44.80;28.80;;;;;;5025950;28;20452;-84
2022/06/23 12:07:50;;;;;;;2.97;1.50;;;44.80;28.70;;;;;;5023117;28;20435;-84
2022/06/23 12:10:22;;;;;;;1.17;1.17;;;44.80;28.60;;;;;;5022548;28;20519;-84
2022/06/23 12:12:50;;;;;;;1.47;1.37;;;44.80;28.50;;;;;;5039166;28;20480;-84
2022/06/23 12:15:20;;;;;;;4.00;1.23;;;45.00;28.50;;;;;;5040841;28;20505;-84
2022/06/23 12:17:50;;;;;;;1.10;1.10;;;45.00;28.40;;;;;;5035630;28;20452;-84
2022/06/23 12:20:21;;;;;;;1.60;1.50;;;45.00;28.50;;;;;;5028422;28;20968;-84
2022/06/23 12:23:00;;;;;;;2.40;1.17;;;45.00;28.40;;;;;;5020908;28;20498;-84
2022/06/23 12:25:33;;;;;;;1.90;1.17;;;45.00;28.40;;;;;;5038637;28;20447;-84
2022/06/23 12:28:07;;;;;;;1.30;1.20;;;45.00;28.30;;;;;;5041176;28;20542;-84
2022/06/23 12:30:39;;;;;;;1.40;1.30;;;45.00;28.20;;;;;;5041270;28;20530;-84
2022/06/23 12:33:10;;;;;;;1.50;1.40;;;45.10;28.10;;;;;;5038312;28;20473;-84
2022/06/23 12:35:43;;;;;;;3.80;1.10;;;45.10;28.00;;;;;;5027884;28;20454;-84
2022/06/23 12:38:13;;;;;;;2.77;1.40;;;45.20;28.10;;;;;;5019821;28;20523;-84
2022/06/23 12:40:46;;;;;;;1.10;1.10;;;45.20;28.10;;;;;;5019930;28;20443;-84
2022/06/23 12:43:21;;;;;;;1.27;1.27;;;45.20;28.00;;;;;;5020686;28;20471;-84
2022/06/23 12:46:03;;;;;;;1.60;1.50;;;45.20;28.00;;;;;;5039340;28;20439;-84
2022/06/23 12:48:38;;;;;;;1.20;1.20;;;45.20;28.00;;;;;;5036779;28;20462;-84
2022/06/23 12:51:16;;;;;;;1.20;1.20;;;45.20;27.90;;;;;;5023787;28;20534;-85
2022/06/23 12:54:08;;;;;;;1.30;1.20;;;45.20;28.00;;;;;;5029469;28;20439;-84
2022/06/23 12:57:11;;;;;;;1.70;1.50;;;45.10;27.90;;;;;;5039180;28;20533;-83
2022/06/23 12:59:42;;;;;;;2.83;1.27;;;45.00;27.90;;;;;;5032835;28;20438;-83
2022/06/23 13:02:16;;;;;;;1.13;1.10;;;45.10;28.00;;;;;;5035160;28;20470;-83
2022/06/23 13:04:53;;;;;;;3.03;1.40;;;45.00;27.80;;;;;;5026914;28;20471;-84
2022/06/23 13:07:23;;;;;;;1.37;1.30;;;45.00;27.90;;;;;;5029551;28;20451;-84
2022/06/23 13:09:55;;;;;;;1.20;1.20;;;44.90;27.90;;;;;;5018665;28;20478;-84
2022/06/23 13:12:41;;;;;;;1.30;1.30;;;44.80;27.90;;;;;;5018680;28;20539;-83
2022/06/23 13:15:12;;;;;;;1.27;1.27;;;44.80;27.90;;;;;;5034576;28;20537;-83
2022/06/23 13:17:42;;;;;;;1.30;1.20;;;44.70;27.90;;;;;;5029462;28;20450;-83
2022/06/23 13:20:19;;;;;;;1.10;1.10;;;44.70;27.90;;;;;;5036363;28;20526;-83
2022/06/23 13:22:48;;;;;;;1.30;1.30;;;44.60;27.80;;;;;;5034696;28;20932;-83
2022/06/23 13:25:21;;;;;;;1.00;1.00;;;44.50;27.80;;;;;;5033662;28;20436;-83
2022/06/23 13:27:50;;;;;;;1.17;1.17;;;44.40;27.80;;;;;;5018463;28;20820;-83
2022/06/23 13:30:44;;;;;;;2.10;1.43;;;44.40;27.90;;;;;;5037921;28;20474;-83
2022/06/23 13:33:25;;;;;;;1.57;1.20;;;44.30;27.90;;;;;;5036177;28;20469;-83